createdAt,value
2018-12-17T00:02:10.302Z,95119.86
2018-12-17T00:04:38.192Z,95116.41
2018-12-17T00:07:05.745Z,95108.11
2018-12-17T00:09:33.281Z,95105.37
2018-12-17T00:12:00.791Z,95108.28
2018-12-17T00:14:28.304Z,95119.59
2018-12-17T00:16:56.165Z,95109.80
2018-12-17T00:19:23.679Z,95117.95
2018-12-17T00:21:51.189Z,95117.33
2018-12-17T00:24:18.953Z,95116.76
2018-12-17T00:26:46.472Z,95118.66
2018-12-17T00:29:13.992Z,95119.83
2018-12-17T00:31:41.554Z,95093.02
2018-12-17T00:34:09.064Z,95134.00
2018-12-17T00:36:36.591Z,95133.45
2018-12-17T00:39:06.669Z,95134.41
2018-12-17T00:41:34.180Z,95136.52
2018-12-17T00:44:01.702Z,95145.87
2018-12-17T00:46:29.239Z,95139.31
2018-12-17T00:48:56.760Z,95135.17
2018-12-17T00:51:24.297Z,95141.53
2018-12-17T00:53:52.036Z,95136.12
2018-12-17T00:56:19.550Z,95143.39
2018-12-17T00:58:47.068Z,95146.87
2018-12-17T01:01:14.786Z,95136.34
2018-12-17T01:03:46.079Z,95137.50
2018-12-17T01:06:13.605Z,95135.61
2018-12-17T01:08:42.800Z,95130.67
2018-12-17T01:11:10.576Z,95135.28
2018-12-17T01:13:38.083Z,95127.51
2018-12-17T01:16:06.382Z,95119.83
2018-12-17T01:18:34.022Z,95115.27
2018-12-17T01:21:01.569Z,95122.34
2018-12-17T01:23:29.122Z,95116.21
2018-12-17T01:25:56.763Z,95118.73
2018-12-17T01:28:24.269Z,95116.41
2018-12-17T01:30:51.817Z,95116.97
2018-12-17T01:33:19.343Z,95104.66
2018-12-17T01:35:46.863Z,95092.77
2018-12-17T01:38:14.407Z,95093.77
2018-12-17T01:40:41.944Z,95086.33
2018-12-17T01:43:09.465Z,95082.48
2018-12-17T01:45:37.167Z,95081.86
2018-12-17T01:48:04.754Z,95076.50
2018-12-17T01:50:32.279Z,95078.80
2018-12-17T01:52:59.987Z,95082.05
2018-12-17T01:55:27.512Z,95075.89
2018-12-17T01:57:55.028Z,95076.33
2018-12-17T02:00:22.760Z,95077.01
2018-12-17T02:02:50.277Z,95070.48
2018-12-17T02:05:17.803Z,95072.44
2018-12-17T02:07:45.569Z,95075.33
2018-12-17T02:10:13.118Z,95071.06
2018-12-17T02:12:40.654Z,95068.59
2018-12-17T02:15:11.068Z,95078.02
2018-12-17T02:17:38.599Z,95073.24
2018-12-17T02:20:06.395Z,95078.60
2018-12-17T02:22:34.173Z,95070.16
2018-12-17T02:25:01.686Z,95064.91
2018-12-17T02:27:29.491Z,95069.16
2018-12-17T02:29:57.022Z,95065.36
2018-12-17T02:32:24.978Z,95064.38
2018-12-17T02:34:52.494Z,95068.42
2018-12-17T02:37:20.240Z,95064.22
2018-12-17T02:39:47.756Z,95068.98
2018-12-17T02:42:15.568Z,95066.12
2018-12-17T02:44:43.068Z,95070.22
2018-12-17T02:47:10.578Z,95059.63
2018-12-17T02:49:38.134Z,95060.03
2018-12-17T02:52:05.687Z,95063.44
2018-12-17T02:54:33.557Z,95067.13
2018-12-17T02:57:01.075Z,95066.34
2018-12-17T02:59:28.894Z,95065.38
2018-12-17T03:01:56.431Z,95072.70
2018-12-17T03:04:24.323Z,95070.20
2018-12-17T03:06:51.880Z,95067.28
2018-12-17T03:09:19.648Z,95071.72
2018-12-17T03:11:47.203Z,95075.75
2018-12-17T03:14:14.836Z,95075.34
2018-12-17T03:16:42.416Z,95066.36
2018-12-17T03:19:09.929Z,95061.69
2018-12-17T03:21:37.456Z,95057.92
2018-12-17T03:24:05.177Z,95065.94
2018-12-17T03:26:32.806Z,95066.91
2018-12-17T03:29:00.322Z,95070.37
2018-12-17T03:31:28.601Z,95069.61
2018-12-17T03:33:56.124Z,95069.06
2018-12-17T03:36:23.638Z,95069.42
2018-12-17T03:38:51.468Z,95070.77
2018-12-17T03:41:18.978Z,95083.39
2018-12-17T03:43:46.488Z,95075.14
2018-12-17T03:46:14.464Z,95084.19
2018-12-17T03:48:41.989Z,95085.54
2018-12-17T03:51:09.516Z,95076.58
2018-12-17T03:53:37.113Z,95083.87
2018-12-17T03:56:04.653Z,95081.73
2018-12-17T03:58:32.165Z,95081.16
2018-12-17T04:01:00.068Z,95084.43
2018-12-17T04:03:27.605Z,95086.33
2018-12-17T04:05:55.136Z,95080.05
2018-12-17T04:08:22.983Z,95085.02
2018-12-17T04:10:50.765Z,95087.92
2018-12-17T04:13:18.293Z,95086.00
2018-12-17T04:15:45.847Z,95091.21
2018-12-17T04:18:13.419Z,95096.55
2018-12-17T04:20:41.300Z,95096.33
2018-12-17T04:23:08.807Z,95094.41
2018-12-17T04:25:36.640Z,95097.45
2018-12-17T04:28:06.215Z,95088.89
2018-12-17T04:30:33.718Z,95098.48
2018-12-17T04:33:01.552Z,95096.55
2018-12-17T04:35:29.061Z,95104.40
2018-12-17T04:37:56.612Z,95107.05
2018-12-17T04:40:24.129Z,95101.34
2018-12-17T04:42:51.658Z,95108.41
2018-12-17T04:45:19.223Z,95108.94
2018-12-17T04:47:46.753Z,95104.35
2018-12-17T04:50:14.269Z,95105.89
2018-12-17T04:52:41.830Z,95111.07
2018-12-17T04:55:09.360Z,95114.13
2018-12-17T04:57:37.278Z,95109.74
2018-12-17T05:00:06.249Z,95105.71
2018-12-17T05:02:33.760Z,95108.20
2018-12-17T05:05:01.319Z,95107.37
2018-12-17T05:07:29.156Z,95109.16
2018-12-17T05:09:56.664Z,95105.89
2018-12-17T05:12:24.220Z,95109.52
2018-12-17T05:14:52.114Z,95109.95
2018-12-17T05:17:19.636Z,95105.13
2018-12-17T05:19:47.158Z,95105.14
2018-12-17T05:22:15.071Z,95101.28
2018-12-17T05:24:42.592Z,95106.16
2018-12-17T05:27:10.134Z,95106.72
2018-12-17T05:29:37.974Z,95109.55
2018-12-17T05:32:05.495Z,95112.83
2018-12-17T05:34:33.027Z,95109.34
2018-12-17T05:37:00.582Z,95117.45
2018-12-17T05:39:28.113Z,95110.34
2018-12-17T05:41:55.645Z,95113.00
2018-12-17T05:44:23.529Z,95110.87
2018-12-17T05:46:51.043Z,95107.59
2018-12-17T05:49:18.834Z,95105.13
2018-12-17T05:51:46.348Z,95101.68
2018-12-17T05:54:13.863Z,95103.02
2018-12-17T05:56:41.420Z,95104.22
2018-12-17T05:59:08.968Z,95106.30
2018-12-17T06:01:36.475Z,95114.36
2018-12-17T06:04:04.034Z,95101.72
2018-12-17T06:06:31.555Z,95103.61
2018-12-17T06:08:59.095Z,95114.80
2018-12-17T06:11:27.590Z,95103.89
2018-12-17T06:13:55.472Z,95100.83
2018-12-17T06:16:23.397Z,95106.21
2018-12-17T06:18:51.201Z,95102.63
2018-12-17T06:21:18.740Z,95111.47
2018-12-17T06:23:46.297Z,95106.45
2018-12-17T06:26:13.855Z,95113.99
2018-12-17T06:28:41.377Z,95111.50
2018-12-17T06:31:08.897Z,95105.21
2018-12-17T06:33:36.424Z,95107.91
2018-12-17T06:36:03.993Z,95114.64
2018-12-17T06:38:31.691Z,95111.33
2018-12-17T06:40:59.210Z,95108.48
2018-12-17T06:43:26.720Z,95100.21
2018-12-17T06:45:54.328Z,95110.81
2018-12-17T06:48:22.026Z,95106.02
2018-12-17T06:50:49.532Z,95109.48
2018-12-17T06:53:17.112Z,95106.21
2018-12-17T06:55:44.889Z,95110.66
2018-12-17T06:58:12.721Z,95109.11
2018-12-17T07:00:40.237Z,95117.17
2018-12-17T07:03:08.221Z,95123.53
2018-12-17T07:05:35.818Z,95117.96
2018-12-17T07:08:04.316Z,95121.22
2018-12-17T07:10:32.277Z,95119.29
2018-12-17T07:12:59.935Z,95121.39
2018-12-17T07:15:27.444Z,95123.13
2018-12-17T07:17:55.143Z,95120.23
2018-12-17T07:20:22.663Z,95119.88
2018-12-17T07:22:50.186Z,95126.42
2018-12-17T07:25:18.054Z,95131.81
2018-12-17T07:27:45.573Z,95120.44
2018-12-17T07:30:13.104Z,95114.08
2018-12-17T07:32:40.694Z,95121.00
2018-12-17T07:35:08.208Z,95125.24
2018-12-17T07:37:35.831Z,95126.21
2018-12-17T07:40:04.027Z,95123.91
2018-12-17T07:42:31.548Z,95126.80
2018-12-17T07:44:59.091Z,95119.09
2018-12-17T07:47:26.624Z,95126.62
2018-12-17T07:49:54.560Z,95128.55
2018-12-17T07:52:22.083Z,95122.75
2018-12-17T07:54:49.980Z,95121.78
2018-12-17T07:57:17.510Z,95122.59
2018-12-17T07:59:45.058Z,95112.97
2018-12-17T08:02:12.602Z,95113.71
2018-12-17T08:04:40.117Z,95117.95
2018-12-17T08:07:07.794Z,95121.62
2018-12-17T08:09:35.429Z,95130.64
2018-12-17T08:12:03.399Z,95126.21
2018-12-17T08:14:30.922Z,95121.02
2018-12-17T08:16:58.720Z,95126.02
2018-12-17T08:19:26.297Z,95124.05
2018-12-17T08:21:53.861Z,95126.35
2018-12-17T08:24:21.380Z,95121.16
2018-12-17T08:26:49.199Z,95125.94
2018-12-17T08:29:16.824Z,95119.12
2018-12-17T08:31:44.388Z,95121.94
2018-12-17T08:34:12.263Z,95117.61
2018-12-17T08:36:40.510Z,95117.16
2018-12-17T08:39:08.067Z,95123.41
2018-12-17T08:41:35.865Z,95116.63
2018-12-17T08:44:03.511Z,95107.14
2018-12-17T08:46:31.069Z,95111.67
2018-12-17T08:48:58.952Z,95115.40
2018-12-17T08:51:26.524Z,95110.40
2018-12-17T08:53:54.104Z,95112.08
2018-12-17T08:56:21.946Z,95106.52
2018-12-17T08:58:49.471Z,95103.88
2018-12-17T09:01:17.266Z,95104.50
2018-12-17T09:03:44.786Z,95099.05
2018-12-17T09:06:12.364Z,95095.59
2018-12-17T09:08:39.932Z,95103.13
2018-12-17T09:11:07.784Z,95095.80
2018-12-17T09:13:35.309Z,95096.42
2018-12-17T09:16:02.903Z,95095.50
2018-12-17T09:18:30.788Z,95089.02
2018-12-17T09:20:58.327Z,95086.97
2018-12-17T09:23:26.131Z,95086.64
2018-12-17T09:25:53.655Z,95084.86
2018-12-17T09:28:21.321Z,95080.94
2018-12-17T09:30:49.087Z,95087.72
2018-12-17T09:33:16.633Z,95088.23
2018-12-17T09:35:44.158Z,95090.84
2018-12-17T09:38:11.724Z,95086.73
2018-12-17T09:40:39.239Z,95091.83
2018-12-17T09:43:07.094Z,95089.35
2018-12-17T09:45:35.043Z,95087.47
2018-12-17T09:48:02.572Z,95069.58
2018-12-17T09:50:30.110Z,95065.17
2018-12-17T09:52:57.934Z,95072.56
2018-12-17T09:55:25.485Z,95070.84
2018-12-17T09:57:53.006Z,95074.13
2018-12-17T10:00:25.341Z,95064.49
2018-12-17T10:02:50.371Z,95055.56
2018-12-17T10:05:17.950Z,95054.87
2018-12-17T10:07:45.839Z,95051.54
2018-12-17T10:10:13.400Z,95049.72
2018-12-17T10:12:40.930Z,95040.58
2018-12-17T10:15:08.924Z,95031.87
2018-12-17T10:17:36.484Z,95037.98
2018-12-17T10:20:05.111Z,95036.22
2018-12-17T10:22:32.631Z,95041.97
2018-12-17T10:25:00.432Z,95034.83
2018-12-17T10:27:27.965Z,95023.93
2018-12-17T10:29:55.499Z,95024.45
2018-12-17T10:32:23.223Z,95027.70
2018-12-17T10:34:50.761Z,95020.40
2018-12-17T10:37:18.303Z,95016.52
2018-12-17T10:39:46.252Z,95018.28
2018-12-17T10:42:13.784Z,95009.34
2018-12-17T10:44:41.301Z,95017.95
2018-12-17T10:47:08.932Z,95002.68
2018-12-17T10:49:36.465Z,95007.42
2018-12-17T10:52:03.976Z,95004.17
2018-12-17T10:54:31.788Z,95001.94
2018-12-17T10:56:59.316Z,95009.72
2018-12-17T10:59:26.930Z,95000.23
2018-12-17T11:01:56.538Z,94994.93
2018-12-17T11:04:24.719Z,94998.52
2018-12-17T11:06:52.369Z,94996.07
2018-12-17T11:09:20.034Z,94997.71
2018-12-17T11:11:47.565Z,95001.85
2018-12-17T11:14:15.096Z,95002.66
2018-12-17T11:16:43.129Z,94996.78
2018-12-17T11:19:10.672Z,94995.49
2018-12-17T11:21:38.180Z,94990.55
2018-12-17T11:24:06.011Z,94984.66
2018-12-17T11:26:33.560Z,94976.09
2018-12-17T11:29:01.436Z,94983.08
2018-12-17T11:31:28.967Z,94976.05
2018-12-17T11:33:56.545Z,94976.45
2018-12-17T11:36:24.061Z,94975.59
2018-12-17T11:38:51.565Z,94974.45
2018-12-17T11:41:19.331Z,94974.62
2018-12-17T11:43:46.884Z,94972.09
2018-12-17T11:46:14.851Z,94976.92
2018-12-17T11:48:42.689Z,94972.29
2018-12-17T11:51:10.250Z,94969.22
2018-12-17T11:53:37.795Z,94969.16
2018-12-17T11:56:05.598Z,94971.03
2018-12-17T11:58:33.370Z,94968.42
2018-12-17T12:01:00.983Z,94969.59
2018-12-17T12:03:28.514Z,94969.28
2018-12-17T12:05:56.368Z,94977.13
2018-12-17T12:08:24.008Z,94980.23
2018-12-17T12:10:51.575Z,94972.84
2018-12-17T12:13:19.155Z,94972.29
2018-12-17T12:15:46.688Z,94980.17
2018-12-17T12:18:14.449Z,94986.63
2018-12-17T12:20:42.319Z,94989.20
2018-12-17T12:23:09.857Z,94988.03
2018-12-17T12:25:37.436Z,94990.10
2018-12-17T12:28:05.172Z,94975.28
2018-12-17T12:30:32.685Z,94984.90
2018-12-17T12:33:00.226Z,94977.11
2018-12-17T12:35:28.209Z,94977.37
2018-12-17T12:37:55.741Z,94982.18
2018-12-17T12:40:23.360Z,94981.38
2018-12-17T12:42:51.709Z,94975.80
2018-12-17T12:45:19.853Z,94981.13
2018-12-17T12:47:47.410Z,94982.83
2018-12-17T12:50:15.202Z,94981.20
2018-12-17T12:52:43.041Z,94973.03
2018-12-17T12:55:10.552Z,94973.77
2018-12-17T12:57:38.796Z,94977.73
2018-12-17T13:00:08.212Z,94976.53
2018-12-17T13:02:36.142Z,94977.60
2018-12-17T13:05:04.009Z,94982.19
2018-12-17T13:07:31.874Z,94988.89
2018-12-17T13:09:59.435Z,94982.98
2018-12-17T13:12:27.403Z,94975.33
2018-12-17T13:14:54.961Z,94967.75
2018-12-17T13:17:27.639Z,94982.38
2018-12-17T13:19:55.727Z,94976.53
2018-12-17T13:22:23.260Z,94975.92
2018-12-17T13:24:50.847Z,94978.77
2018-12-17T13:27:18.708Z,94982.05
2018-12-17T13:29:46.258Z,94991.52
2018-12-17T13:32:13.814Z,94994.78
2018-12-17T13:34:41.591Z,94994.69
2018-12-17T13:37:09.102Z,94997.39
2018-12-17T13:39:36.631Z,94999.17
2018-12-17T13:42:04.356Z,94989.95
2018-12-17T13:44:31.883Z,94999.42
2018-12-17T13:46:59.682Z,95008.02
2018-12-17T13:49:27.340Z,95023.20
2018-12-17T13:54:57.629Z,95031.53
2018-12-17T13:57:26.652Z,95027.90
2018-12-17T13:59:54.187Z,95022.27
2018-12-17T14:02:21.717Z,95024.97
2018-12-17T14:04:49.354Z,95022.77
2018-12-17T14:07:16.874Z,95020.30
2018-12-17T14:09:49.864Z,95008.02
2018-12-17T14:12:17.705Z,95001.22
2018-12-17T14:14:45.417Z,95011.27
2018-12-17T14:20:21.017Z,95018.30
2018-12-17T14:22:48.559Z,95018.66
2018-12-17T14:25:16.161Z,95019.48
2018-12-17T14:27:43.991Z,95019.37
2018-12-17T14:30:11.547Z,95022.53
2018-12-17T14:32:39.096Z,95023.91
2018-12-17T14:35:06.861Z,95033.13
2018-12-17T14:37:36.405Z,95031.58
2018-12-17T14:40:06.455Z,95038.17
2018-12-17T14:42:33.977Z,95037.23
2018-12-17T14:45:01.488Z,95034.77
2018-12-17T14:47:29.465Z,95032.30
2018-12-17T14:49:56.986Z,95041.02
2018-12-17T14:52:24.513Z,95030.26
2018-12-17T14:54:52.072Z,95062.77
2018-12-17T14:57:19.596Z,95064.91
2018-12-17T14:59:47.138Z,95065.88
2018-12-17T15:02:15.055Z,95063.78
2018-12-17T15:04:42.587Z,95065.56
2018-12-17T15:07:10.146Z,95066.53
2018-12-17T15:09:37.656Z,95061.52
2018-12-17T15:12:05.245Z,95071.94
2018-12-17T15:14:32.838Z,95076.77
2018-12-17T15:17:00.384Z,95074.25
2018-12-17T15:19:28.271Z,95060.61
2018-12-17T15:21:55.774Z,95069.84
2018-12-17T15:24:23.673Z,95073.68
2018-12-17T15:26:51.236Z,95079.08
2018-12-17T15:29:18.752Z,95076.39
2018-12-17T15:31:46.552Z,95084.48
2018-12-17T15:34:14.113Z,95082.91
2018-12-17T15:36:41.892Z,95090.23
2018-12-17T15:39:09.433Z,95087.72
2018-12-17T15:41:37.326Z,95089.86
2018-12-17T15:44:04.861Z,95087.56
2018-12-17T15:46:32.373Z,95076.38
2018-12-17T15:48:59.949Z,95083.68
2018-12-17T15:51:27.489Z,95085.22
2018-12-17T15:53:55.196Z,95091.01
2018-12-17T15:56:22.976Z,95089.81
2018-12-17T15:58:50.505Z,95085.02
2018-12-17T16:01:18.261Z,95088.28
2018-12-17T16:03:45.789Z,95090.41
2018-12-17T16:06:13.318Z,95103.50
2018-12-17T16:08:41.023Z,95103.30
2018-12-17T16:11:08.623Z,95109.88
2018-12-17T16:13:36.151Z,95107.55
2018-12-17T16:16:03.828Z,95111.39
2018-12-17T16:18:31.406Z,95117.74
2018-12-17T16:20:58.916Z,95119.07
2018-12-17T16:23:26.521Z,95119.47
2018-12-17T16:25:54.080Z,95121.95
2018-12-17T16:28:21.642Z,95122.33
2018-12-17T16:30:49.606Z,95128.91
2018-12-17T16:33:17.134Z,95133.14
2018-12-17T16:35:44.653Z,95137.77
2018-12-17T16:38:12.688Z,95145.84
2018-12-17T16:40:40.257Z,95147.38
2018-12-17T16:43:08.132Z,95152.59
2018-12-17T16:45:35.675Z,95156.45
2018-12-17T16:48:03.557Z,95159.52
2018-12-17T16:50:31.105Z,95163.56
2018-12-17T16:52:58.890Z,95165.67
2018-12-17T16:55:26.419Z,95171.07
2018-12-17T16:57:54.308Z,95166.06
2018-12-17T17:00:21.885Z,95179.73
2018-12-17T17:02:49.437Z,95185.13
2018-12-17T17:05:16.969Z,95188.02
2018-12-17T17:07:44.630Z,95189.17
2018-12-17T17:10:12.169Z,95184.34
2018-12-17T17:12:46.276Z,95186.86
2018-12-17T17:15:13.962Z,95185.31
2018-12-17T17:17:41.521Z,95191.86
2018-12-17T17:20:09.619Z,95190.50
2018-12-17T17:22:37.457Z,95195.91
2018-12-17T17:25:05.914Z,95180.70
2018-12-17T17:27:33.440Z,95191.48
2018-12-17T17:30:01.010Z,95182.42
2018-12-17T17:32:28.832Z,95182.81
2018-12-17T17:34:56.376Z,95175.28
2018-12-17T17:37:23.892Z,95186.07
2018-12-17T17:39:51.739Z,95191.84
2018-12-17T17:42:19.317Z,95189.37
2018-12-17T17:44:46.849Z,95194.56
2018-12-17T17:47:14.652Z,95194.36
2018-12-17T17:49:42.177Z,95199.00
2018-12-17T17:52:09.705Z,95190.51
2018-12-17T17:54:37.396Z,95198.59
2018-12-17T17:57:04.941Z,95195.90
2018-12-17T17:59:32.478Z,95195.72
2018-12-17T18:02:00.183Z,95203.41
2018-12-17T18:04:27.711Z,95200.31
2018-12-17T18:06:55.259Z,95208.03
2018-12-17T18:09:23.249Z,95206.87
2018-12-17T18:11:50.817Z,95208.59
2018-12-17T18:14:18.685Z,95199.94
2018-12-17T18:16:46.223Z,95214.56
2018-12-17T18:19:14.101Z,95212.84
2018-12-17T18:21:41.667Z,95221.50
2018-12-17T18:24:09.529Z,95226.50
2018-12-17T18:26:37.164Z,95226.70
2018-12-17T18:29:04.837Z,95212.45
2018-12-17T18:31:32.811Z,95230.00
2018-12-17T18:34:00.346Z,95230.56
2018-12-17T18:36:27.876Z,95226.70
2018-12-17T18:38:56.085Z,95227.10
2018-12-17T18:41:23.606Z,95225.95
2018-12-17T18:43:51.143Z,95230.37
2018-12-17T18:46:18.696Z,95233.46
2018-12-17T18:48:46.217Z,95225.95
2018-12-17T18:51:13.747Z,95214.20
2018-12-17T18:53:41.552Z,95234.78
2018-12-17T18:56:09.069Z,95238.25
2018-12-17T18:58:36.593Z,95234.20
2018-12-17T19:01:04.599Z,95234.81
2018-12-17T19:03:32.103Z,95234.04
2018-12-17T19:05:59.643Z,95243.27
2018-12-17T19:08:27.542Z,95242.49
2018-12-17T19:10:55.065Z,95247.48
2018-12-17T19:13:22.568Z,95249.60
2018-12-17T19:15:50.363Z,95253.64
2018-12-17T19:18:17.903Z,95244.22
2018-12-17T19:20:45.510Z,95247.88
2018-12-17T19:23:13.307Z,95252.70
2018-12-17T19:25:41.373Z,95265.40
2018-12-17T19:28:08.887Z,95263.65
2018-12-17T19:30:36.693Z,95267.52
2018-12-17T19:33:04.199Z,95262.88
2018-12-17T19:35:32.010Z,95263.27
2018-12-17T19:37:59.538Z,95264.42
2018-12-17T19:40:27.109Z,95263.28
2018-12-17T19:42:54.981Z,95275.78
2018-12-17T19:45:22.532Z,95278.47
2018-12-17T19:47:50.500Z,95277.10
2018-12-17T19:50:18.014Z,95281.30
2018-12-17T19:52:45.785Z,95290.71
2018-12-17T19:55:13.296Z,95298.19
2018-12-17T19:57:41.179Z,95300.09
2018-12-17T20:00:09.626Z,95295.48
2018-12-17T20:02:37.386Z,95298.19
2018-12-17T20:05:05.623Z,95298.16
2018-12-17T20:07:33.132Z,95303.33
2018-12-17T20:10:00.644Z,95305.48
2018-12-17T20:12:28.477Z,95303.31
2018-12-17T20:14:55.994Z,95306.34
2018-12-17T20:17:23.557Z,95303.68
2018-12-17T20:19:52.869Z,95301.92
2018-12-17T20:22:20.937Z,95306.11
2018-12-17T20:24:48.459Z,95304.84
2018-12-17T20:27:15.997Z,95306.91
2018-12-17T20:29:43.512Z,95306.50
2018-12-17T20:32:11.070Z,95305.17
2018-12-17T20:34:39.682Z,95314.70
2018-12-17T20:37:07.519Z,95323.20
2018-12-17T20:39:35.848Z,95322.97
2018-12-17T20:42:03.453Z,95320.10
2018-12-17T20:44:30.961Z,95325.48
2018-12-17T20:46:58.477Z,95327.08
2018-12-17T20:49:26.032Z,95326.10
2018-12-17T20:51:53.541Z,95329.91
2018-12-17T20:54:21.363Z,95335.52
2018-12-17T20:56:48.887Z,95342.30
2018-12-17T20:59:16.415Z,95340.30
2018-12-17T21:01:43.958Z,95329.71
2018-12-17T21:04:11.504Z,95337.98
2018-12-17T21:06:39.038Z,95341.49
2018-12-17T21:09:07.732Z,95348.79
2018-12-17T21:11:35.607Z,95346.48
2018-12-17T21:14:03.180Z,95344.19
2018-12-17T21:16:30.688Z,95341.29
2018-12-17T21:18:58.418Z,95357.44
2018-12-17T21:21:25.937Z,95353.42
2018-12-17T21:23:53.492Z,95358.23
2018-12-17T21:26:21.260Z,95363.59
2018-12-17T21:28:48.784Z,95367.86
2018-12-17T21:31:16.318Z,95364.20
2018-12-17T21:33:43.957Z,95367.22
2018-12-17T21:36:11.471Z,95365.30
2018-12-17T21:38:39.012Z,95366.06
2018-12-17T21:41:06.751Z,95357.77
2018-12-17T21:43:36.163Z,95346.45
2018-12-17T21:46:03.884Z,95361.98
2018-12-17T21:48:31.738Z,95366.67
2018-12-17T21:50:59.304Z,95373.97
2018-12-17T21:53:26.829Z,95366.67
2018-12-17T21:55:54.644Z,95363.53
2018-12-17T21:58:22.148Z,95358.70
2018-12-17T22:00:49.695Z,95356.60
2018-12-17T22:03:17.214Z,95353.70
2018-12-17T22:05:44.741Z,95347.94
2018-12-17T22:10:51.198Z,95359.05
2018-12-17T22:13:18.733Z,95351.58
2018-12-17T22:15:46.283Z,95356.03
2018-12-17T22:18:13.803Z,95351.56
2018-12-17T22:20:41.345Z,95353.34
2018-12-17T22:23:08.868Z,95349.08
2018-12-17T22:25:36.404Z,95352.56
2018-12-17T22:28:03.989Z,95361.25
2018-12-17T22:30:32.452Z,95348.72
2018-12-17T22:32:59.962Z,95342.61
2018-12-17T22:35:27.475Z,95352.37
2018-12-17T22:37:55.354Z,95355.11
2018-12-17T22:40:22.892Z,95354.50
2018-12-17T22:42:50.433Z,95352.22
2018-12-17T22:45:18.231Z,95348.55
2018-12-17T22:47:45.820Z,95341.86
2018-12-17T22:50:13.355Z,95351.81
2018-12-17T22:52:41.092Z,95349.14
2018-12-17T22:55:08.643Z,95344.34
2018-12-17T22:57:36.273Z,95343.00
2018-12-17T23:00:07.451Z,95341.29
2018-12-17T23:02:34.995Z,95335.13
2018-12-17T23:05:02.741Z,95335.33
2018-12-17T23:07:30.296Z,95337.42
2018-12-17T23:10:09.714Z,95331.44
2018-12-17T23:12:49.140Z,95324.11
2018-12-17T23:15:28.465Z,95332.21
2018-12-17T23:17:56.286Z,95328.71
2018-12-17T23:20:24.068Z,95322.95
2018-12-17T23:22:51.616Z,95320.09
2018-12-17T23:25:19.417Z,95336.45
2018-12-17T23:27:48.455Z,95334.66
2018-12-17T23:30:16.476Z,95330.71
2018-12-17T23:32:44.645Z,95324.31
2018-12-17T23:35:12.162Z,95312.41
2018-12-17T23:37:39.840Z,95319.30
2018-12-17T23:40:07.602Z,95328.17
2018-12-17T23:42:35.159Z,95322.24
2018-12-17T23:45:02.712Z,95330.31
2018-12-17T23:47:30.495Z,95323.41
2018-12-17T23:49:58.018Z,95327.09
2018-12-17T23:52:25.831Z,95319.52
2018-12-17T23:54:53.397Z,95296.95
2018-12-17T23:57:20.916Z,95323.19
2018-12-17T23:59:48.894Z,95321.27
